sensor_id;sensor_type;location;lat;lon;timestamp;P1;durP1;ratioP1;P2;durP2;ratioP2
2898;SDS011;1459;50.864;6.438;2022-08-19T00:00:14;15.77;;;14.23;;
2898;SDS011;1459;50.864;6.438;2022-08-19T00:02:45;16.52;;;14.40;;
2898;SDS011;1459;50.864;6.438;2022-08-19T00:05:13;15.40;;;13.70;;
2898;SDS011;1459;50.864;6.438;2022-08-19T00:07:41;16.35;;;14.75;;
2898;SDS011;1459;50.864;6.438;2022-08-19T00:10:11;15.35;;;13.75;;
2898;SDS011;1459;50.864;6.438;2022-08-19T00:12:40;17.23;;;13.77;;
2898;SDS011;1459;50.864;6.438;2022-08-19T00:15:08;15.63;;;14.02;;
2898;SDS011;1459;50.864;6.438;2022-08-19T00:17:37;18.30;;;15.98;;
2898;SDS011;1459;50.864;6.438;2022-08-19T00:20:07;14.63;;;13.20;;
2898;SDS011;1459;50.864;6.438;2022-08-19T00:22:36;16.42;;;14.40;;
2898;SDS011;1459;50.864;6.438;2022-08-19T00:25:03;16.23;;;14.73;;
2898;SDS011;1459;50.864;6.438;2022-08-19T00:27:31;16.08;;;14.50;;
2898;SDS011;1459;50.864;6.438;2022-08-19T00:29:58;16.00;;;14.43;;
2898;SDS011;1459;50.864;6.438;2022-08-19T00:32:27;15.07;;;13.52;;
2898;SDS011;1459;50.864;6.438;2022-08-19T00:34:54;16.88;;;15.27;;
2898;SDS011;1459;50.864;6.438;2022-08-19T00:37:23;15.18;;;13.82;;
2898;SDS011;1459;50.864;6.438;2022-08-19T00:39:51;16.10;;;14.60;;
2898;SDS011;1459;50.864;6.438;2022-08-19T00:42:21;15.45;;;13.88;;
2898;SDS011;1459;50.864;6.438;2022-08-19T00:44:48;15.93;;;14.45;;
2898;SDS011;1459;50.864;6.438;2022-08-19T00:47:16;14.57;;;13.32;;
2898;SDS011;1459;50.864;6.438;2022-08-19T00:49:47;15.48;;;14.07;;
2898;SDS011;1459;50.864;6.438;2022-08-19T00:52:17;16.73;;;15.13;;
2898;SDS011;1459;50.864;6.438;2022-08-19T00:54:48;15.80;;;13.90;;
2898;SDS011;1459;50.864;6.438;2022-08-19T00:57:17;16.30;;;14.80;;
2898;SDS011;1459;50.864;6.438;2022-08-19T00:59:48;16.02;;;14.43;;
2898;SDS011;1459;50.864;6.438;2022-08-19T01:02:20;18.20;;;15.90;;
2898;SDS011;1459;50.864;6.438;2022-08-19T01:04:47;16.30;;;14.60;;
2898;SDS011;1459;50.864;6.438;2022-08-19T01:07:14;15.93;;;14.60;;
2898;SDS011;1459;50.864;6.438;2022-08-19T01:09:41;16.00;;;14.40;;
2898;SDS011;1459;50.864;6.438;2022-08-19T01:12:10;15.32;;;13.77;;
2898;SDS011;1459;50.864;6.438;2022-08-19T01:14:37;15.70;;;14.10;;
2898;SDS011;1459;50.864;6.438;2022-08-19T01:17:06;19.83;;;15.15;;
2898;SDS011;1459;50.864;6.438;2022-08-19T01:19:36;18.45;;;15.32;;
2898;SDS011;1459;50.864;6.438;2022-08-19T01:22:06;15.70;;;14.30;;
2898;SDS011;1459;50.864;6.438;2022-08-19T01:24:38;15.63;;;14.05;;
2898;SDS011;1459;50.864;6.438;2022-08-19T01:27:06;14.45;;;13.15;;
2898;SDS011;1459;50.864;6.438;2022-08-19T01:29:34;14.52;;;13.32;;
2898;SDS011;1459;50.864;6.438;2022-08-19T01:32:04;15.63;;;14.15;;
2898;SDS011;1459;50.864;6.438;2022-08-19T01:34:32;21.20;;;14.93;;
2898;SDS011;1459;50.864;6.438;2022-08-19T01:36:59;16.30;;;14.38;;
2898;SDS011;1459;50.864;6.438;2022-08-19T01:39:33;15.98;;;14.05;;
2898;SDS011;1459;50.864;6.438;2022-08-19T01:42:01;16.48;;;14.93;;
2898;SDS011;1459;50.864;6.438;2022-08-19T01:44:29;16.77;;;15.18;;
2898;SDS011;1459;50.864;6.438;2022-08-19T01:46:56;16.63;;;15.13;;
2898;SDS011;1459;50.864;6.438;2022-08-19T01:49:24;20.45;;;16.38;;
2898;SDS011;1459;50.864;6.438;2022-08-19T01:51:52;17.05;;;15.40;;
2898;SDS011;1459;50.864;6.438;2022-08-19T01:54:21;19.40;;;17.35;;
2898;SDS011;1459;50.864;6.438;2022-08-19T01:56:49;22.00;;;18.02;;
2898;SDS011;1459;50.864;6.438;2022-08-19T01:59:19;19.23;;;16.00;;
2898;SDS011;1459;50.864;6.438;2022-08-19T02:01:49;20.55;;;16.25;;
2898;SDS011;1459;50.864;6.438;2022-08-19T02:04:16;17.63;;;15.55;;
2898;SDS011;1459;50.864;6.438;2022-08-19T02:06:43;17.85;;;15.95;;
2898;SDS011;1459;50.864;6.438;2022-08-19T02:09:13;17.38;;;15.63;;
2898;SDS011;1459;50.864;6.438;2022-08-19T02:11:41;17.40;;;15.70;;
2898;SDS011;1459;50.864;6.438;2022-08-19T02:14:08;19.92;;;16.73;;
2898;SDS011;1459;50.864;6.438;2022-08-19T02:16:37;17.88;;;15.52;;
2898;SDS011;1459;50.864;6.438;2022-08-19T02:19:05;19.25;;;17.13;;
2898;SDS011;1459;50.864;6.438;2022-08-19T02:21:32;18.27;;;16.42;;
2898;SDS011;1459;50.864;6.438;2022-08-19T02:24:00;22.20;;;17.70;;
2898;SDS011;1459;50.864;6.438;2022-08-19T02:26:27;17.23;;;15.63;;
2898;SDS011;1459;50.864;6.438;2022-08-19T02:28:55;18.05;;;16.35;;
2898;SDS011;1459;50.864;6.438;2022-08-19T02:31:23;16.90;;;15.20;;
2898;SDS011;1459;50.864;6.438;2022-08-19T02:33:52;18.90;;;16.92;;
2898;SDS011;1459;50.864;6.438;2022-08-19T02:36:20;17.98;;;16.25;;
2898;SDS011;1459;50.864;6.438;2022-08-19T02:38:48;15.63;;;14.10;;
2898;SDS011;1459;50.864;6.438;2022-08-19T02:41:15;17.58;;;15.70;;
2898;SDS011;1459;50.864;6.438;2022-08-19T02:43:44;18.88;;;15.25;;
2898;SDS011;1459;50.864;6.438;2022-08-19T02:46:13;15.73;;;14.18;;
2898;SDS011;1459;50.864;6.438;2022-08-19T02:48:45;17.20;;;15.45;;
2898;SDS011;1459;50.864;6.438;2022-08-19T02:51:17;17.33;;;15.63;;
2898;SDS011;1459;50.864;6.438;2022-08-19T02:53:44;17.88;;;15.50;;
2898;SDS011;1459;50.864;6.438;2022-08-19T02:56:11;17.52;;;15.90;;
2898;SDS011;1459;50.864;6.438;2022-08-19T02:58:39;19.65;;;17.67;;
2898;SDS011;1459;50.864;6.438;2022-08-19T03:01:07;18.58;;;16.88;;
2898;SDS011;1459;50.864;6.438;2022-08-19T03:03:34;17.73;;;16.13;;
2898;SDS011;1459;50.864;6.438;2022-08-19T03:06:08;18.20;;;16.17;;
2898;SDS011;1459;50.864;6.438;2022-08-19T03:08:42;19.95;;;18.05;;
2898;SDS011;1459;50.864;6.438;2022-08-19T03:11:14;19.63;;;17.83;;
2898;SDS011;1459;50.864;6.438;2022-08-19T03:13:42;20.92;;;18.67;;
2898;SDS011;1459;50.864;6.438;2022-08-19T03:16:09;20.48;;;18.58;;
2898;SDS011;1459;50.864;6.438;2022-08-19T03:18:37;18.90;;;17.00;;
2898;SDS011;1459;50.864;6.438;2022-08-19T03:21:05;20.35;;;18.33;;
2898;SDS011;1459;50.864;6.438;2022-08-19T03:23:32;22.38;;;18.27;;
2898;SDS011;1459;50.864;6.438;2022-08-19T03:26:03;21.02;;;18.73;;
2898;SDS011;1459;50.864;6.438;2022-08-19T03:28:31;21.55;;;19.33;;
2898;SDS011;1459;50.864;6.438;2022-08-19T03:31:01;22.05;;;19.80;;
2898;SDS011;1459;50.864;6.438;2022-08-19T03:33:30;24.70;;;22.27;;
2898;SDS011;1459;50.864;6.438;2022-08-19T03:35:59;24.33;;;22.00;;
2898;SDS011;1459;50.864;6.438;2022-08-19T03:38:28;26.73;;;23.73;;
2898;SDS011;1459;50.864;6.438;2022-08-19T03:40:55;25.45;;;22.70;;
2898;SDS011;1459;50.864;6.438;2022-08-19T03:43:24;27.23;;;23.67;;
2898;SDS011;1459;50.864;6.438;2022-08-19T03:45:59;31.40;;;25.33;;
2898;SDS011;1459;50.864;6.438;2022-08-19T03:48:27;26.02;;;23.23;;
2898;SDS011;1459;50.864;6.438;2022-08-19T03:50:55;26.10;;;23.30;;
2898;SDS011;1459;50.864;6.438;2022-08-19T03:53:24;28.60;;;25.52;;
2898;SDS011;1459;50.864;6.438;2022-08-19T03:55:52;35.03;;;31.20;;
2898;SDS011;1459;50.864;6.438;2022-08-19T03:58:19;33.38;;;29.77;;
2898;SDS011;1459;50.864;6.438;2022-08-19T04:00:48;40.28;;;32.75;;
2898;SDS011;1459;50.864;6.438;2022-08-19T04:03:15;34.15;;;30.55;;
2898;SDS011;1459;50.864;6.438;2022-08-19T04:05:44;32.60;;;29.13;;
2898;SDS011;1459;50.864;6.438;2022-08-19T04:08:12;26.38;;;23.45;;
2898;SDS011;1459;50.864;6.438;2022-08-19T04:10:46;20.75;;;18.65;;
2898;SDS011;1459;50.864;6.438;2022-08-19T04:13:13;21.20;;;18.92;;
2898;SDS011;1459;50.864;6.438;2022-08-19T04:15:41;23.38;;;19.42;;
2898;SDS011;1459;50.864;6.438;2022-08-19T04:18:12;25.13;;;20.75;;
2898;SDS011;1459;50.864;6.438;2022-08-19T04:20:41;25.02;;;21.92;;
2898;SDS011;1459;50.864;6.438;2022-08-19T04:23:09;26.63;;;23.73;;
2898;SDS011;1459;50.864;6.438;2022-08-19T04:25:38;32.25;;;26.90;;
2898;SDS011;1459;50.864;6.438;2022-08-19T04:28:06;29.70;;;26.58;;
2898;SDS011;1459;50.864;6.438;2022-08-19T04:30:38;34.63;;;30.88;;
2898;SDS011;1459;50.864;6.438;2022-08-19T04:33:07;35.28;;;29.30;;
2898;SDS011;1459;50.864;6.438;2022-08-19T04:35:36;28.95;;;24.45;;
2898;SDS011;1459;50.864;6.438;2022-08-19T04:38:04;32.00;;;28.52;;
2898;SDS011;1459;50.864;6.438;2022-08-19T04:40:32;33.20;;;29.70;;
2898;SDS011;1459;50.864;6.438;2022-08-19T04:43:17;35.67;;;31.13;;
2898;SDS011;1459;50.864;6.438;2022-08-19T04:45:46;36.20;;;32.53;;
2898;SDS011;1459;50.864;6.438;2022-08-19T04:48:13;37.38;;;33.38;;
2898;SDS011;1459;50.864;6.438;2022-08-19T04:50:43;41.38;;;33.45;;
2898;SDS011;1459;50.864;6.438;2022-08-19T04:53:10;42.88;;;37.40;;
2898;SDS011;1459;50.864;6.438;2022-08-19T04:55:40;44.85;;;38.63;;
2898;SDS011;1459;50.864;6.438;2022-08-19T04:58:08;41.83;;;34.42;;
2898;SDS011;1459;50.864;6.438;2022-08-19T05:00:37;42.47;;;36.00;;
2898;SDS011;1459;50.864;6.438;2022-08-19T05:03:05;43.92;;;36.58;;
2898;SDS011;1459;50.864;6.438;2022-08-19T05:05:32;46.20;;;37.03;;
2898;SDS011;1459;50.864;6.438;2022-08-19T05:08:01;60.33;;;43.15;;
2898;SDS011;1459;50.864;6.438;2022-08-19T05:10:28;65.20;;;49.05;;
2898;SDS011;1459;50.864;6.438;2022-08-19T05:12:56;68.18;;;51.10;;
2898;SDS011;1459;50.864;6.438;2022-08-19T05:15:23;83.57;;;55.75;;
2898;SDS011;1459;50.864;6.438;2022-08-19T05:17:50;83.60;;;54.42;;
2898;SDS011;1459;50.864;6.438;2022-08-19T05:20:37;74.47;;;52.20;;
2898;SDS011;1459;50.864;6.438;2022-08-19T05:23:23;79.68;;;54.35;;
2898;SDS011;1459;50.864;6.438;2022-08-19T05:25:50;82.28;;;55.35;;
2898;SDS011;1459;50.864;6.438;2022-08-19T05:28:17;75.60;;;52.58;;
2898;SDS011;1459;50.864;6.438;2022-08-19T05:30:45;73.68;;;53.63;;
2898;SDS011;1459;50.864;6.438;2022-08-19T05:33:13;75.38;;;53.40;;
2898;SDS011;1459;50.864;6.438;2022-08-19T05:35:40;71.75;;;52.65;;
2898;SDS011;1459;50.864;6.438;2022-08-19T05:38:07;75.93;;;53.53;;
2898;SDS011;1459;50.864;6.438;2022-08-19T05:40:37;72.55;;;49.65;;
2898;SDS011;1459;50.864;6.438;2022-08-19T05:43:06;72.18;;;51.45;;
2898;SDS011;1459;50.864;6.438;2022-08-19T05:45:37;66.63;;;50.83;;
2898;SDS011;1459;50.864;6.438;2022-08-19T05:48:07;65.78;;;48.80;;
2898;SDS011;1459;50.864;6.438;2022-08-19T05:50:36;65.57;;;47.80;;
2898;SDS011;1459;50.864;6.438;2022-08-19T05:53:03;67.25;;;49.20;;
2898;SDS011;1459;50.864;6.438;2022-08-19T05:55:30;66.95;;;49.22;;
2898;SDS011;1459;50.864;6.438;2022-08-19T05:57:59;71.13;;;46.78;;
2898;SDS011;1459;50.864;6.438;2022-08-19T06:00:27;60.10;;;45.05;;
2898;SDS011;1459;50.864;6.438;2022-08-19T06:02:56;72.32;;;45.50;;
2898;SDS011;1459;50.864;6.438;2022-08-19T06:05:24;63.53;;;46.50;;
2898;SDS011;1459;50.864;6.438;2022-08-19T06:07:51;69.88;;;47.30;;
2898;SDS011;1459;50.864;6.438;2022-08-19T06:10:19;62.38;;;45.90;;
2898;SDS011;1459;50.864;6.438;2022-08-19T06:12:46;65.63;;;46.38;;
2898;SDS011;1459;50.864;6.438;2022-08-19T06:15:15;67.45;;;48.35;;
2898;SDS011;1459;50.864;6.438;2022-08-19T06:17:42;72.82;;;49.28;;
2898;SDS011;1459;50.864;6.438;2022-08-19T06:20:11;69.95;;;48.25;;
2898;SDS011;1459;50.864;6.438;2022-08-19T06:22:40;80.68;;;54.25;;
2898;SDS011;1459;50.864;6.438;2022-08-19T06:25:09;77.43;;;54.47;;
2898;SDS011;1459;50.864;6.438;2022-08-19T06:27:37;76.90;;;52.92;;
2898;SDS011;1459;50.864;6.438;2022-08-19T06:30:04;80.50;;;51.92;;
2898;SDS011;1459;50.864;6.438;2022-08-19T06:32:34;73.22;;;50.85;;
2898;SDS011;1459;50.864;6.438;2022-08-19T06:35:01;77.95;;;52.78;;
2898;SDS011;1459;50.864;6.438;2022-08-19T06:37:28;76.75;;;51.72;;
2898;SDS011;1459;50.864;6.438;2022-08-19T06:39:55;74.68;;;49.67;;
2898;SDS011;1459;50.864;6.438;2022-08-19T06:42:22;73.68;;;49.40;;
2898;SDS011;1459;50.864;6.438;2022-08-19T06:44:49;81.78;;;51.30;;
2898;SDS011;1459;50.864;6.438;2022-08-19T06:47:17;72.20;;;50.72;;
2898;SDS011;1459;50.864;6.438;2022-08-19T06:49:47;73.20;;;51.05;;
2898;SDS011;1459;50.864;6.438;2022-08-19T06:52:14;75.55;;;52.63;;
2898;SDS011;1459;50.864;6.438;2022-08-19T06:54:41;77.95;;;50.25;;
2898;SDS011;1459;50.864;6.438;2022-08-19T06:57:08;75.20;;;52.60;;
2898;SDS011;1459;50.864;6.438;2022-08-19T06:59:40;77.60;;;53.38;;
2898;SDS011;1459;50.864;6.438;2022-08-19T07:02:07;73.93;;;53.20;;
2898;SDS011;1459;50.864;6.438;2022-08-19T07:04:34;73.50;;;54.28;;
2898;SDS011;1459;50.864;6.438;2022-08-19T07:07:06;69.55;;;50.50;;
2898;SDS011;1459;50.864;6.438;2022-08-19T07:09:37;69.32;;;50.00;;
2898;SDS011;1459;50.864;6.438;2022-08-19T07:12:06;70.13;;;49.90;;
2898;SDS011;1459;50.864;6.438;2022-08-19T07:14:35;69.90;;;49.10;;
2898;SDS011;1459;50.864;6.438;2022-08-19T07:17:04;71.05;;;51.45;;
2898;SDS011;1459;50.864;6.438;2022-08-19T07:19:33;74.38;;;51.38;;
2898;SDS011;1459;50.864;6.438;2022-08-19T07:22:02;71.05;;;49.47;;
2898;SDS011;1459;50.864;6.438;2022-08-19T07:24:32;65.60;;;48.45;;
2898;SDS011;1459;50.864;6.438;2022-08-19T07:27:00;64.47;;;46.45;;
2898;SDS011;1459;50.864;6.438;2022-08-19T07:29:30;60.38;;;43.85;;
2898;SDS011;1459;50.864;6.438;2022-08-19T07:31:59;52.83;;;38.30;;
2898;SDS011;1459;50.864;6.438;2022-08-19T07:34:30;40.65;;;32.75;;
2898;SDS011;1459;50.864;6.438;2022-08-19T07:36:59;42.47;;;33.33;;
2898;SDS011;1459;50.864;6.438;2022-08-19T07:39:29;41.03;;;33.53;;
2898;SDS011;1459;50.864;6.438;2022-08-19T07:41:58;42.63;;;35.03;;
2898;SDS011;1459;50.864;6.438;2022-08-19T07:44:27;45.63;;;34.35;;
2898;SDS011;1459;50.864;6.438;2022-08-19T07:46:54;33.15;;;28.50;;
2898;SDS011;1459;50.864;6.438;2022-08-19T07:49:22;38.30;;;30.80;;
2898;SDS011;1459;50.864;6.438;2022-08-19T07:51:51;45.13;;;30.48;;
2898;SDS011;1459;50.864;6.438;2022-08-19T07:54:22;34.38;;;27.45;;
2898;SDS011;1459;50.864;6.438;2022-08-19T07:56:51;35.17;;;27.77;;
2898;SDS011;1459;50.864;6.438;2022-08-19T07:59:19;30.88;;;27.10;;
2898;SDS011;1459;50.864;6.438;2022-08-19T08:01:46;30.15;;;25.58;;
2898;SDS011;1459;50.864;6.438;2022-08-19T08:04:15;29.60;;;24.08;;
2898;SDS011;1459;50.864;6.438;2022-08-19T08:07:00;28.83;;;21.42;;
2898;SDS011;1459;50.864;6.438;2022-08-19T08:09:45;25.40;;;21.77;;
2898;SDS011;1459;50.864;6.438;2022-08-19T08:12:14;26.35;;;20.55;;
2898;SDS011;1459;50.864;6.438;2022-08-19T08:14:44;30.20;;;20.13;;
2898;SDS011;1459;50.864;6.438;2022-08-19T08:17:12;23.85;;;18.45;;
2898;SDS011;1459;50.864;6.438;2022-08-19T08:19:40;28.98;;;20.92;;
2898;SDS011;1459;50.864;6.438;2022-08-19T08:22:07;23.27;;;20.40;;
2898;SDS011;1459;50.864;6.438;2022-08-19T08:24:59;25.38;;;20.05;;
2898;SDS011;1459;50.864;6.438;2022-08-19T08:27:30;24.17;;;20.73;;
2898;SDS011;1459;50.864;6.438;2022-08-19T08:29:57;25.80;;;20.50;;
2898;SDS011;1459;50.864;6.438;2022-08-19T08:32:27;24.52;;;20.58;;
2898;SDS011;1459;50.864;6.438;2022-08-19T08:34:55;27.50;;;24.00;;
2898;SDS011;1459;50.864;6.438;2022-08-19T08:37:22;28.73;;;22.30;;
2898;SDS011;1459;50.864;6.438;2022-08-19T08:39:49;28.60;;;24.08;;
2898;SDS011;1459;50.864;6.438;2022-08-19T08:42:18;30.83;;;24.92;;
2898;SDS011;1459;50.864;6.438;2022-08-19T08:44:53;38.85;;;27.85;;
2898;SDS011;1459;50.864;6.438;2022-08-19T08:47:26;36.00;;;29.38;;
2898;SDS011;1459;50.864;6.438;2022-08-19T08:50:02;34.53;;;28.10;;
2898;SDS011;1459;50.864;6.438;2022-08-19T08:52:32;37.42;;;29.17;;
2898;SDS011;1459;50.864;6.438;2022-08-19T08:55:03;36.15;;;29.63;;
2898;SDS011;1459;50.864;6.438;2022-08-19T08:57:35;39.60;;;30.65;;
2898;SDS011;1459;50.864;6.438;2022-08-19T09:00:09;39.78;;;32.78;;
2898;SDS011;1459;50.864;6.438;2022-08-19T09:02:41;36.70;;;32.80;;
2898;SDS011;1459;50.864;6.438;2022-08-19T09:05:08;40.30;;;34.15;;
2898;SDS011;1459;50.864;6.438;2022-08-19T09:07:39;41.55;;;33.22;;
2898;SDS011;1459;50.864;6.438;2022-08-19T09:10:14;42.88;;;33.13;;
2898;SDS011;1459;50.864;6.438;2022-08-19T09:12:57;41.35;;;33.10;;
2898;SDS011;1459;50.864;6.438;2022-08-19T09:15:36;39.70;;;34.25;;
2898;SDS011;1459;50.864;6.438;2022-08-19T09:18:09;46.20;;;34.05;;
2898;SDS011;1459;50.864;6.438;2022-08-19T09:20:37;42.25;;;34.78;;
2898;SDS011;1459;50.864;6.438;2022-08-19T09:23:04;40.47;;;33.50;;
2898;SDS011;1459;50.864;6.438;2022-08-19T09:25:31;36.42;;;32.13;;
2898;SDS011;1459;50.864;6.438;2022-08-19T09:27:59;39.60;;;30.98;;
2898;SDS011;1459;50.864;6.438;2022-08-19T09:30:29;33.63;;;30.23;;
2898;SDS011;1459;50.864;6.438;2022-08-19T09:32:58;38.20;;;30.10;;
2898;SDS011;1459;50.864;6.438;2022-08-19T09:35:28;30.05;;;26.85;;
2898;SDS011;1459;50.864;6.438;2022-08-19T09:37:56;37.97;;;29.70;;
2898;SDS011;1459;50.864;6.438;2022-08-19T09:40:25;33.10;;;29.23;;
2898;SDS011;1459;50.864;6.438;2022-08-19T09:42:53;35.72;;;30.35;;
2898;SDS011;1459;50.864;6.438;2022-08-19T09:45:22;30.67;;;27.48;;
2898;SDS011;1459;50.864;6.438;2022-08-19T09:47:50;30.67;;;27.42;;
2898;SDS011;1459;50.864;6.438;2022-08-19T09:50:21;31.00;;;27.55;;
2898;SDS011;1459;50.864;6.438;2022-08-19T09:52:49;30.00;;;26.77;;
2898;SDS011;1459;50.864;6.438;2022-08-19T09:55:18;36.83;;;32.03;;
2898;SDS011;1459;50.864;6.438;2022-08-19T09:57:45;38.70;;;34.55;;
2898;SDS011;1459;50.864;6.438;2022-08-19T10:00:12;33.17;;;29.67;;
2898;SDS011;1459;50.864;6.438;2022-08-19T10:02:40;33.40;;;29.60;;
2898;SDS011;1459;50.864;6.438;2022-08-19T10:05:07;33.85;;;30.45;;
2898;SDS011;1459;50.864;6.438;2022-08-19T10:07:53;34.08;;;30.27;;
2898;SDS011;1459;50.864;6.438;2022-08-19T10:10:20;35.13;;;31.52;;
2898;SDS011;1459;50.864;6.438;2022-08-19T10:12:47;34.50;;;30.83;;
2898;SDS011;1459;50.864;6.438;2022-08-19T10:15:14;34.03;;;30.52;;
2898;SDS011;1459;50.864;6.438;2022-08-19T10:17:46;34.07;;;29.03;;
2898;SDS011;1459;50.864;6.438;2022-08-19T10:20:13;34.73;;;30.60;;
2898;SDS011;1459;50.864;6.438;2022-08-19T10:22:40;33.90;;;30.42;;
2898;SDS011;1459;50.864;6.438;2022-08-19T10:25:09;32.75;;;29.25;;
2898;SDS011;1459;50.864;6.438;2022-08-19T10:27:41;31.05;;;27.75;;
2898;SDS011;1459;50.864;6.438;2022-08-19T10:30:09;34.15;;;30.55;;
2898;SDS011;1459;50.864;6.438;2022-08-19T10:32:37;31.48;;;27.98;;
2898;SDS011;1459;50.864;6.438;2022-08-19T10:35:05;34.88;;;29.13;;
2898;SDS011;1459;50.864;6.438;2022-08-19T10:37:33;34.50;;;30.92;;
2898;SDS011;1459;50.864;6.438;2022-08-19T10:40:02;36.17;;;30.00;;
2898;SDS011;1459;50.864;6.438;2022-08-19T10:42:32;32.33;;;28.58;;
2898;SDS011;1459;50.864;6.438;2022-08-19T10:44:59;34.93;;;29.63;;
2898;SDS011;1459;50.864;6.438;2022-08-19T10:47:26;34.70;;;30.55;;
2898;SDS011;1459;50.864;6.438;2022-08-19T10:49:54;33.77;;;30.00;;
2898;SDS011;1459;50.864;6.438;2022-08-19T10:52:39;31.67;;;28.15;;
2898;SDS011;1459;50.864;6.438;2022-08-19T10:55:07;27.87;;;24.83;;
2898;SDS011;1459;50.864;6.438;2022-08-19T10:57:53;30.13;;;26.83;;
2898;SDS011;1459;50.864;6.438;2022-08-19T11:00:21;34.77;;;29.03;;
2898;SDS011;1459;50.864;6.438;2022-08-19T11:02:49;30.00;;;26.80;;
2898;SDS011;1459;50.864;6.438;2022-08-19T11:05:17;28.20;;;25.20;;
2898;SDS011;1459;50.864;6.438;2022-08-19T11:07:44;31.47;;;26.73;;
2898;SDS011;1459;50.864;6.438;2022-08-19T11:10:12;31.70;;;27.73;;
2898;SDS011;1459;50.864;6.438;2022-08-19T11:12:44;24.37;;;20.83;;
2898;SDS011;1459;50.864;6.438;2022-08-19T11:15:14;32.20;;;26.00;;
2898;SDS011;1459;50.864;6.438;2022-08-19T11:17:41;26.83;;;24.13;;
2898;SDS011;1459;50.864;6.438;2022-08-19T11:20:09;28.30;;;22.90;;
2898;SDS011;1459;50.864;6.438;2022-08-19T11:22:37;30.40;;;23.77;;
2898;SDS011;1459;50.864;6.438;2022-08-19T11:25:06;28.93;;;25.83;;
2898;SDS011;1459;50.864;6.438;2022-08-19T11:27:33;25.80;;;22.43;;
2898;SDS011;1459;50.864;6.438;2022-08-19T11:30:05;22.23;;;20.00;;
2898;SDS011;1459;50.864;6.438;2022-08-19T11:32:35;25.87;;;21.90;;
2898;SDS011;1459;50.864;6.438;2022-08-19T11:35:02;24.53;;;19.93;;
2898;SDS011;1459;50.864;6.438;2022-08-19T11:37:29;20.40;;;18.40;;
2898;SDS011;1459;50.864;6.438;2022-08-19T11:39:56;27.80;;;20.70;;
2898;SDS011;1459;50.864;6.438;2022-08-19T11:42:23;22.50;;;20.10;;
2898;SDS011;1459;50.864;6.438;2022-08-19T11:45:08;21.73;;;18.20;;
2898;SDS011;1459;50.864;6.438;2022-08-19T11:47:40;22.13;;;18.27;;
2898;SDS011;1459;50.864;6.438;2022-08-19T11:50:09;23.37;;;20.20;;
2898;SDS011;1459;50.864;6.438;2022-08-19T11:52:36;22.23;;;17.67;;
2898;SDS011;1459;50.864;6.438;2022-08-19T11:55:03;23.53;;;18.73;;
2898;SDS011;1459;50.864;6.438;2022-08-19T11:57:31;23.00;;;19.40;;
2898;SDS011;1459;50.864;6.438;2022-08-19T11:59:58;21.00;;;18.80;;
2898;SDS011;1459;50.864;6.438;2022-08-19T12:02:26;21.27;;;18.27;;
2898;SDS011;1459;50.864;6.438;2022-08-19T12:04:55;23.87;;;19.97;;
2898;SDS011;1459;50.864;6.438;2022-08-19T12:07:23;20.97;;;18.77;;
2898;SDS011;1459;50.864;6.438;2022-08-19T12:09:50;20.00;;;17.97;;
2898;SDS011;1459;50.864;6.438;2022-08-19T12:12:17;20.60;;;18.40;;
2898;SDS011;1459;50.864;6.438;2022-08-19T12:14:45;21.33;;;17.07;;
2898;SDS011;1459;50.864;6.438;2022-08-19T12:17:12;22.13;;;18.00;;
2898;SDS011;1459;50.864;6.438;2022-08-19T12:19:40;19.37;;;17.00;;
2898;SDS011;1459;50.864;6.438;2022-08-19T12:22:08;19.47;;;17.10;;
2898;SDS011;1459;50.864;6.438;2022-08-19T12:24:35;18.20;;;16.30;;
2898;SDS011;1459;50.864;6.438;2022-08-19T12:27:05;22.47;;;19.40;;
2898;SDS011;1459;50.864;6.438;2022-08-19T12:29:32;20.37;;;16.70;;
2898;SDS011;1459;50.864;6.438;2022-08-19T12:31:59;19.43;;;17.40;;
2898;SDS011;1459;50.864;6.438;2022-08-19T12:34:27;19.50;;;17.60;;
2898;SDS011;1459;50.864;6.438;2022-08-19T12:36:56;18.90;;;16.90;;
2898;SDS011;1459;50.864;6.438;2022-08-19T12:39:25;18.43;;;16.10;;
2898;SDS011;1459;50.864;6.438;2022-08-19T12:41:52;21.20;;;19.00;;
2898;SDS011;1459;50.864;6.438;2022-08-19T12:44:19;22.10;;;16.27;;
2898;SDS011;1459;50.864;6.438;2022-08-19T12:46:46;16.83;;;14.53;;
2898;SDS011;1459;50.864;6.438;2022-08-19T12:49:14;20.27;;;17.33;;
2898;SDS011;1459;50.864;6.438;2022-08-19T12:51:41;23.27;;;20.77;;
2898;SDS011;1459;50.864;6.438;2022-08-19T12:54:08;22.27;;;19.60;;
2898;SDS011;1459;50.864;6.438;2022-08-19T12:56:37;19.37;;;17.30;;
2898;SDS011;1459;50.864;6.438;2022-08-19T12:59:04;16.87;;;15.07;;
2898;SDS011;1459;50.864;6.438;2022-08-19T13:01:33;19.67;;;17.67;;
2898;SDS011;1459;50.864;6.438;2022-08-19T13:04:00;16.30;;;14.37;;
2898;SDS011;1459;50.864;6.438;2022-08-19T13:06:30;17.17;;;13.23;;
2898;SDS011;1459;50.864;6.438;2022-08-19T13:08:57;21.80;;;11.90;;
2898;SDS011;1459;50.864;6.438;2022-08-19T13:11:24;15.83;;;10.50;;
2898;SDS011;1459;50.864;6.438;2022-08-19T13:13:53;15.30;;;11.60;;
2898;SDS011;1459;50.864;6.438;2022-08-19T13:16:22;24.20;;;11.90;;
2898;SDS011;1459;50.864;6.438;2022-08-19T13:18:49;14.47;;;10.57;;
2898;SDS011;1459;50.864;6.438;2022-08-19T13:21:17;13.70;;;9.17;;
2898;SDS011;1459;50.864;6.438;2022-08-19T13:23:50;10.17;;;8.63;;
2898;SDS011;1459;50.864;6.438;2022-08-19T13:26:18;11.83;;;6.97;;
2898;SDS011;1459;50.864;6.438;2022-08-19T13:28:45;10.73;;;5.77;;
2898;SDS011;1459;50.864;6.438;2022-08-19T13:31:32;7.30;;;6.60;;
2898;SDS011;1459;50.864;6.438;2022-08-19T13:34:17;7.20;;;4.67;;
2898;SDS011;1459;50.864;6.438;2022-08-19T13:36:46;7.17;;;4.90;;
2898;SDS011;1459;50.864;6.438;2022-08-19T13:39:13;8.70;;;4.53;;
2898;SDS011;1459;50.864;6.438;2022-08-19T13:41:43;15.70;;;5.03;;
2898;SDS011;1459;50.864;6.438;2022-08-19T13:44:13;10.33;;;4.90;;
2898;SDS011;1459;50.864;6.438;2022-08-19T13:46:41;7.10;;;4.30;;
2898;SDS011;1459;50.864;6.438;2022-08-19T13:49:10;4.90;;;4.40;;
2898;SDS011;1459;50.864;6.438;2022-08-19T13:51:38;5.80;;;5.10;;
2898;SDS011;1459;50.864;6.438;2022-08-19T13:54:05;8.50;;;5.10;;
2898;SDS011;1459;50.864;6.438;2022-08-19T13:56:33;4.80;;;4.00;;
2898;SDS011;1459;50.864;6.438;2022-08-19T13:59:01;7.33;;;4.70;;
2898;SDS011;1459;50.864;6.438;2022-08-19T14:01:28;4.23;;;3.53;;
2898;SDS011;1459;50.864;6.438;2022-08-19T14:03:57;7.33;;;5.00;;
2898;SDS011;1459;50.864;6.438;2022-08-19T14:06:24;6.07;;;4.70;;
2898;SDS011;1459;50.864;6.438;2022-08-19T14:08:51;8.23;;;4.90;;
2898;SDS011;1459;50.864;6.438;2022-08-19T14:11:18;6.83;;;4.00;;
2898;SDS011;1459;50.864;6.438;2022-08-19T14:13:49;8.20;;;4.23;;
2898;SDS011;1459;50.864;6.438;2022-08-19T14:16:16;10.50;;;4.37;;
2898;SDS011;1459;50.864;6.438;2022-08-19T14:18:43;4.33;;;3.57;;
2898;SDS011;1459;50.864;6.438;2022-08-19T14:21:15;6.60;;;4.57;;
2898;SDS011;1459;50.864;6.438;2022-08-19T14:23:45;5.87;;;3.27;;
2898;SDS011;1459;50.864;6.438;2022-08-19T14:26:13;4.40;;;4.00;;
2898;SDS011;1459;50.864;6.438;2022-08-19T14:28:42;6.17;;;3.73;;
2898;SDS011;1459;50.864;6.438;2022-08-19T14:31:10;5.13;;;3.20;;
2898;SDS011;1459;50.864;6.438;2022-08-19T14:33:37;6.60;;;3.50;;
2898;SDS011;1459;50.864;6.438;2022-08-19T14:36:05;4.33;;;3.20;;
2898;SDS011;1459;50.864;6.438;2022-08-19T14:38:34;4.60;;;3.97;;
2898;SDS011;1459;50.864;6.438;2022-08-19T14:41:08;5.57;;;3.23;;
2898;SDS011;1459;50.864;6.438;2022-08-19T14:43:38;3.33;;;2.90;;
2898;SDS011;1459;50.864;6.438;2022-08-19T14:46:05;4.70;;;3.20;;
2898;SDS011;1459;50.864;6.438;2022-08-19T14:48:35;5.93;;;3.60;;
2898;SDS011;1459;50.864;6.438;2022-08-19T14:51:03;4.33;;;2.93;;
2898;SDS011;1459;50.864;6.438;2022-08-19T14:53:31;3.10;;;2.80;;
2898;SDS011;1459;50.864;6.438;2022-08-19T14:56:01;3.03;;;2.60;;
2898;SDS011;1459;50.864;6.438;2022-08-19T14:58:32;4.77;;;2.50;;
2898;SDS011;1459;50.864;6.438;2022-08-19T15:01:00;5.20;;;2.77;;